Time;durP1;ratioP1;P1;durP2;ratioP2;P2;SDS_P1;SDS_P2;PMS_P1;PMS_P2;Temp;Humidity;BMP_temperature;BMP_pressure;BME280_temperature;BME280_humidity;BME280_pressure;Samples;Min_cycle;Max_cycle;Signal;HPM_P1;HPM_P2
2022/04/30 00:01:10;;;;;;;;;;;;;;;3.95;83.34;99114.53;3208616;23;20014;-77
2022/04/30 00:02:26;;;;;;;;;;;;;;;3.95;83.45;99110.19;3208639;23;20726;-77
2022/04/30 00:03:42;;;;;;;;;;;;;;;3.95;83.45;99111.94;3208817;23;19923;-76
2022/04/30 00:04:57;;;;;;;;;;;;;;;3.93;83.57;99108.47;3208699;23;20340;-77
2022/04/30 00:06:12;;;;;;;;;;;;;;;3.90;83.61;99108.41;3208949;23;20340;-77
2022/04/30 00:07:28;;;;;;;;;;;;;;;3.82;83.18;99108.31;3208684;23;19931;-77
2022/04/30 00:08:44;;;;;;;;;;;;;;;3.84;83.02;99113.53;3209049;23;19971;-77
2022/04/30 00:09:59;;;;;;;;;;;;;;;3.85;83.50;99110.97;3208803;23;20465;-78
2022/04/30 00:11:14;;;;;;;;;;;;;;;3.90;83.85;99108.41;3208758;23;19935;-78
2022/04/30 00:12:31;;;;;;;;;;;;;;;3.81;84.33;99111.78;3208669;23;19943;-77
2022/04/30 00:13:46;;;;;;;;;;;;;;;3.73;83.87;99106.50;3209015;23;19924;-77
2022/04/30 00:15:02;;;;;;;;;;;;;;;3.68;83.54;99108.19;3208652;23;20211;-78
2022/04/30 00:16:17;;;;;;;;;;;;;;;3.65;83.37;99113.34;3207483;23;20038;-77
2022/04/30 00:17:33;;;;;;;;;;;;;;;3.64;84.41;99109.03;3208393;23;19924;-78
2022/04/30 00:18:49;;;;;;;;;;;;;;;3.60;84.67;99105.53;3208588;23;19930;-78
2022/04/30 00:20:05;;;;;;;;;;;;;;;3.52;84.79;99104.56;3209056;23;19931;-77
2022/04/30 00:21:20;;;;;;;;;;;;;;;3.34;84.87;99107.81;3208737;23;19920;-79
2022/04/30 00:22:36;;;;;;;;;;;;;;;3.32;85.54;99109.50;3208341;23;19970;-77
2022/04/30 00:23:52;;;;;;;;;;;;;;;3.36;86.13;99106.13;3208926;23;19923;-77
2022/04/30 00:25:09;;;;;;;;;;;;;;;3.36;86.40;99106.13;3208418;23;19977;-76
2022/04/30 00:26:24;;;;;;;;;;;;;;;3.32;87.20;99104.34;3207938;23;19924;-77
2022/04/30 00:27:40;;;;;;;;;;;;;;;3.36;86.83;99100.94;3208485;23;19951;-77
2022/04/30 00:28:55;;;;;;;;;;;;;;;3.38;85.96;99092.31;3208716;23;19923;-77
2022/04/30 00:30:11;;;;;;;;;;;;;;;3.45;85.26;99097.59;3208852;23;19962;-78
2022/04/30 00:31:26;;;;;;;;;;;;;;;3.45;85.10;99097.59;3208910;23;19935;-77
2022/04/30 00:32:42;;;;;;;;;;;;;;;3.39;85.32;99098.38;3208607;23;19924;-77
2022/04/30 00:33:57;;;;;;;;;;;;;;;3.31;85.33;99100.00;3208768;23;20302;-78
2022/04/30 00:35:13;;;;;;;;;;;;;;;3.29;85.03;99089.66;3208475;23;19924;-77
2022/04/30 00:36:28;;;;;;;;;;;;;;;3.27;84.85;99101.69;3208565;23;19924;-77
2022/04/30 00:37:44;;;;;;;;;;;;;;;3.30;84.67;99093.97;3213424;23;19930;-79
2022/04/30 00:39:00;;;;;;;;;;;;;;;3.30;84.57;99095.69;3208210;23;20531;-78
2022/04/30 00:40:15;;;;;;;;;;;;;;;3.25;84.82;99093.91;3208750;23;19978;-77
2022/04/30 00:41:32;;;;;;;;;;;;;;;3.23;84.59;99092.16;3208021;23;19923;-77
2022/04/30 00:42:48;;;;;;;;;;;;;;;3.25;84.32;99096.50;3208335;23;19927;-77
2022/04/30 00:44:03;;;;;;;;;;;;;;;3.28;84.57;99094.81;3208480;23;19969;-79
2022/04/30 00:45:19;;;;;;;;;;;;;;;3.28;85.62;99092.22;3208755;23;19934;-77
2022/04/30 00:46:34;;;;;;;;;;;;;;;3.22;85.88;99088.72;3208311;23;20689;-78
2022/04/30 00:47:50;;;;;;;;;;;;;;;3.24;85.10;99087.00;3208455;23;19927;-77
2022/04/30 00:49:08;;;;;;;;;;;;;;;3.26;85.24;99081.84;3208582;23;20335;-77
2022/04/30 00:50:26;;;;;;;;;;;;;;;3.31;85.76;99082.78;3208228;23;19924;-77
2022/04/30 00:51:43;;;;;;;;;;;;;;;3.25;85.92;99083.56;3208395;23;19923;-78
2022/04/30 00:53:00;;;;;;;;;;;;;;;3.24;85.63;99088.72;3208464;23;19928;-77
2022/04/30 00:54:17;;;;;;;;;;;;;;;3.21;85.65;99086.97;3208439;23;19986;-77
2022/04/30 00:55:35;;;;;;;;;;;;;;;3.23;86.41;99086.97;3208406;23;20000;-77
2022/04/30 00:56:52;;;;;;;;;;;;;;;3.25;85.98;99088.75;3208863;23;19923;-77
2022/04/30 00:58:10;;;;;;;;;;;;;;;3.27;85.18;99085.31;3208431;23;19928;-77
2022/04/30 00:59:26;;;;;;;;;;;;;;;3.20;86.34;99079.19;3208805;23;20296;-76
2022/04/30 01:00:43;;;;;;;;;;;;;;;3.19;85.88;99088.66;3208643;23;19924;-77
2022/04/30 01:01:59;;;;;;;;;;;;;;;3.12;86.94;99084.25;3208544;23;19920;-77
2022/04/30 01:03:15;;;;;;;;;;;;;;;3.15;86.78;99084.28;3208789;23;19928;-77
2022/04/30 01:04:30;;;;;;;;;;;;;;;3.09;87.25;99079.91;3208618;23;19924;-76
2022/04/30 01:05:48;;;;;;;;;;;;;;;3.03;87.70;99084.13;3208719;23;19924;-77
2022/04/30 01:07:07;;;;;;;;;;;;;;;2.88;87.77;99074.47;3208244;23;20002;-79
2022/04/30 01:08:24;;;;;;;;;;;;;;;2.85;87.67;99083.06;3208645;23;19924;-77
2022/04/30 01:09:42;;;;;;;;;;;;;;;2.81;88.01;99073.53;3208315;23;19999;-77
2022/04/30 01:11:00;;;;;;;;;;;;;;;2.78;87.91;99074.34;3208296;23;19954;-82
2022/04/30 01:12:16;;;;;;;;;;;;;;;2.75;87.90;99073.44;3208103;23;20403;-78
2022/04/30 01:13:33;;;;;;;;;;;;;;;2.77;87.88;99076.91;3208076;23;19924;-77
2022/04/30 01:14:52;;;;;;;;;;;;;;;2.78;87.50;99076.03;3208152;23;20384;-77
2022/04/30 01:16:08;;;;;;;;;;;;;;;2.78;87.49;99078.63;3208398;23;20357;-77
2022/04/30 01:17:23;;;;;;;;;;;;;;;2.80;87.05;99076.97;3208374;23;19927;-77
2022/04/30 01:18:39;;;;;;;;;;;;;;;2.81;86.90;99082.13;3208163;23;19924;-78
2022/04/30 01:19:54;;;;;;;;;;;;;;;2.83;87.75;99082.16;3208776;23;19991;-78
2022/04/30 01:21:12;;;;;;;;;;;;;;;2.94;89.00;99077.13;3208255;23;20255;-77
2022/04/30 01:22:27;;;;;;;;;;;;;;;3.05;91.32;99078.16;3208027;23;19995;-77
2022/04/30 01:23:44;;;;;;;;;;;;;;;3.17;91.15;99080.00;3208191;23;19935;-79
2022/04/30 01:25:00;;;;;;;;;;;;;;;3.14;90.05;99079.09;3208330;23;19924;-77
2022/04/30 01:26:20;;;;;;;;;;;;;;;3.05;88.64;99072.97;3208204;23;19924;-78
2022/04/30 01:27:36;;;;;;;;;;;;;;;2.98;88.02;99071.13;3207978;23;19930;-78
2022/04/30 01:28:52;;;;;;;;;;;;;;;2.99;87.81;99066.84;3208127;23;19943;-77
2022/04/30 01:30:08;;;;;;;;;;;;;;;3.06;87.60;99064.34;3208125;23;19935;-77
2022/04/30 01:37:39;;;;;;;;;;;;;;;2.83;88.18;99051.97;3208384;23;20366;-77
2022/04/30 01:38:58;;;;;;;;;;;;;;;2.83;88.19;99059.75;3207970;23;19919;-78
2022/04/30 01:40:14;;;;;;;;;;;;;;;2.81;87.62;99058.00;3208303;23;19951;-79
2022/04/30 01:41:29;;;;;;;;;;;;;;;2.79;87.40;99055.38;3208391;23;19924;-80
2022/04/30 01:42:45;;;;;;;;;;;;;;;2.79;87.26;99055.38;3208278;23;20003;-77
2022/04/30 01:44:01;;;;;;;;;;;;;;;2.79;87.79;99060.56;3208490;23;20002;-78
2022/04/30 01:45:18;;;;;;;;;;;;;;;2.76;88.26;99054.47;3208239;23;19924;-78
2022/04/30 01:46:33;;;;;;;;;;;;;;;2.73;89.26;99059.59;3208115;23;19924;-77
2022/04/30 01:47:49;;;;;;;;;;;;;;;2.73;89.18;99057.03;3208328;23;19924;-78
2022/04/30 01:49:04;;;;;;;;;;;;;;;2.73;89.77;99059.59;3208159;23;20014;-78
2022/04/30 01:50:21;;;;;;;;;;;;;;;2.75;89.65;99068.25;3208167;23;20332;-78
2022/04/30 01:51:38;;;;;;;;;;;;;;;2.74;89.19;99058.75;3207399;23;20003;-77
2022/04/30 01:52:54;;;;;;;;;;;;;;;2.71;89.28;99067.34;3207484;23;19924;-83
2022/04/30 01:54:09;;;;;;;;;;;;;;;2.64;88.82;99055.19;3208271;23;19977;-77
2022/04/30 01:55:25;;;;;;;;;;;;;;;2.53;89.26;99053.31;3208229;23;19924;-78
2022/04/30 01:56:40;;;;;;;;;;;;;;;2.53;89.22;99052.47;3208238;23;19928;-78
2022/04/30 01:57:56;;;;;;;;;;;;;;;2.47;89.61;99060.09;3208318;23;20019;-77
2022/04/30 01:59:12;;;;;;;;;;;;;;;2.40;90.39;99060.03;3208079;23;19947;-77
2022/04/30 02:00:28;;;;;;;;;;;;;;;2.52;89.30;99051.56;3207987;23;20686;-77
2022/04/30 02:01:44;;;;;;;;;;;;;;;2.59;89.65;99051.69;3208529;23;19924;-77
2022/04/30 02:03:09;;;;;;;;;;;;;;;2.60;90.12;99051.69;3208150;23;19923;-77
2022/04/30 02:04:25;;;;;;;;;;;;;;;2.61;90.39;99048.25;3207909;23;19930;-77
2022/04/30 02:05:41;;;;;;;;;;;;;;;2.55;90.68;99040.41;3208308;23;19924;-77
2022/04/30 02:06:59;;;;;;;;;;;;;;;2.53;91.56;99049.88;3208108;23;19924;-78
2022/04/30 02:08:16;;;;;;;;;;;;;;;2.55;91.99;99043.00;3208041;23;19928;-78
2022/04/30 02:09:32;;;;;;;;;;;;;;;2.56;92.35;99047.31;3208240;23;19998;-77
2022/04/30 02:10:48;;;;;;;;;;;;;;;2.59;92.05;99047.34;3208012;23;19927;-78
2022/04/30 02:12:04;;;;;;;;;;;;;;;2.69;91.07;99045.75;3207951;23;20003;-77
2022/04/30 02:13:23;;;;;;;;;;;;;;;2.68;91.21;99041.44;3208084;23;19927;-77
2022/04/30 02:14:40;;;;;;;;;;;;;;;2.66;90.39;99041.44;3207842;23;19923;-77
2022/04/30 02:15:56;;;;;;;;;;;;;;;2.54;90.64;99039.53;3207509;23;20214;-78
2022/04/30 02:17:12;;;;;;;;;;;;;;;2.36;90.64;99032.38;3207625;23;19931;-77
2022/04/30 02:18:28;;;;;;;;;;;;;;;2.33;91.17;99044.41;3208171;23;20451;-77
2022/04/30 02:21:21;;;;;;;;;;;;;;;2.32;91.22;99035.78;3213260;23;19923;-77
2022/04/30 02:22:38;;;;;;;;;;;;;;;2.33;90.84;99047.84;3208086;23;20335;-77
2022/04/30 02:23:57;;;;;;;;;;;;;;;2.33;90.58;99042.69;3208185;23;20279;-83
2022/04/30 02:25:13;;;;;;;;;;;;;;;2.35;90.81;99043.56;3208297;23;19931;-77
2022/04/30 02:26:29;;;;;;;;;;;;;;;2.33;90.91;99042.69;3208099;23;19919;-77
2022/04/30 02:27:46;;;;;;;;;;;;;;;2.31;90.78;99036.63;3208451;23;20545;-79
2022/04/30 02:29:01;;;;;;;;;;;;;;;2.31;90.75;99041.78;3208044;23;19923;-77
2022/04/30 02:30:18;;;;;;;;;;;;;;;2.34;90.35;99036.66;3208387;23;19951;-77
2022/04/30 02:31:35;;;;;;;;;;;;;;;2.32;90.04;99037.50;3207464;23;19979;-77
2022/04/30 02:32:51;;;;;;;;;;;;;;;2.33;89.64;99040.09;3207462;23;19924;-78
2022/04/30 02:34:06;;;;;;;;;;;;;;;2.36;89.62;99034.97;3207893;23;20003;-77
2022/04/30 02:35:24;;;;;;;;;;;;;;;2.36;89.85;99029.78;3208173;23;19923;-77
2022/04/30 02:36:40;;;;;;;;;;;;;;;2.38;89.91;99030.72;3208119;23;19923;-78
2022/04/30 02:37:58;;;;;;;;;;;;;;;2.37;89.83;99025.50;3207894;23;20393;-77
2022/04/30 02:39:14;;;;;;;;;;;;;;;2.46;89.56;99024.75;3207913;23;19922;-78
2022/04/30 02:40:30;;;;;;;;;;;;;;;2.39;90.55;99026.41;3208267;23;19947;-77
2022/04/30 02:41:45;;;;;;;;;;;;;;;2.37;90.46;99023.78;3208153;23;19924;-77
2022/04/30 02:43:11;;;;;;;;;;;;;;;2.34;89.97;99020.31;3207822;23;19930;-78
2022/04/30 02:44:26;;;;;;;;;;;;;;;2.28;89.75;99023.66;3213048;23;19960;-78
2022/04/30 02:45:43;;;;;;;;;;;;;;;2.23;90.05;99027.88;3207969;23;20303;-78
2022/04/30 02:46:58;;;;;;;;;;;;;;;2.22;90.10;99021.84;3207937;23;19928;-77
2022/04/30 02:48:15;;;;;;;;;;;;;;;2.19;90.33;99023.50;3208176;23;19920;-77
2022/04/30 02:49:30;;;;;;;;;;;;;;;2.16;90.84;99021.75;3207649;23;19955;-79
2022/04/30 02:50:45;;;;;;;;;;;;;;;2.20;90.77;99027.84;3207966;23;20339;-81
2022/04/30 02:52:01;;;;;;;;;;;;;;;2.24;90.58;99021.88;3208213;23;19974;-79
2022/04/30 02:53:17;;;;;;;;;;;;;;;2.20;90.31;99018.38;3207746;23;19931;-77
2022/04/30 02:54:34;;;;;;;;;;;;;;;2.16;90.58;99026.06;3208020;23;19955;-78
2022/04/30 02:55:49;;;;;;;;;;;;;;;2.16;91.19;99028.63;3207736;23;19982;-77
2022/04/30 02:57:05;;;;;;;;;;;;;;;2.18;91.27;99029.53;3208187;23;19947;-77
2022/04/30 02:59:54;;;;;;;;;;;;;;;2.12;91.09;99025.13;3212612;23;19931;-78
2022/04/30 03:01:10;;;;;;;;;;;;;;;2.07;90.66;99025.06;3207190;23;20379;-78
2022/04/30 03:02:26;;;;;;;;;;;;;;;2.08;91.12;99024.22;3207707;23;19924;-77
2022/04/30 03:03:41;;;;;;;;;;;;;;;2.07;90.88;99024.19;3208220;23;19971;-78
2022/04/30 03:04:56;;;;;;;;;;;;;;;2.06;90.63;99028.47;3208071;23;20411;-79
2022/04/30 03:06:13;;;;;;;;;;;;;;;2.05;90.62;99028.47;3207952;23;20547;-78
2022/04/30 03:07:29;;;;;;;;;;;;;;;2.03;90.37;99028.44;3207724;23;19923;-77
2022/04/30 03:08:48;;;;;;;;;;;;;;;2.03;90.12;99025.84;3207949;23;19920;-77
2022/04/30 03:10:04;;;;;;;;;;;;;;;2.03;90.03;99032.75;3207854;23;19920;-77
2022/04/30 03:11:19;;;;;;;;;;;;;;;2.04;89.92;99035.34;3208012;23;19927;-77
2022/04/30 03:12:36;;;;;;;;;;;;;;;2.08;89.62;99034.53;3208148;23;20332;-82
2022/04/30 03:13:51;;;;;;;;;;;;;;;2.04;89.05;99029.31;3209322;23;19965;-80
2022/04/30 03:15:07;;;;;;;;;;;;;;;1.96;89.52;99031.78;3208860;23;19928;-77
2022/04/30 03:22:34;;;;;;;;;;;;;;;1.87;89.58;99021.28;3213765;23;19920;-81
2022/04/30 03:23:51;;;;;;;;;;;;;;;1.87;89.63;99023.88;3208850;23;20358;-78
2022/04/30 03:25:07;;;;;;;;;;;;;;;1.90;90.49;99026.50;3207921;23;19927;-77
2022/04/30 03:26:26;;;;;;;;;;;;;;;1.93;92.43;99018.81;3208300;23;20344;-78
2022/04/30 03:27:41;;;;;;;;;;;;;;;1.94;92.77;99015.38;3208157;23;19930;-77
2022/04/30 03:28:57;;;;;;;;;;;;;;;1.96;92.69;99017.16;3207839;23;19934;-77
2022/04/30 03:30:13;;;;;;;;;;;;;;;1.98;91.69;99018.03;3208709;23;19944;-77
2022/04/30 03:31:30;;;;;;;;;;;;;;;1.93;91.32;99021.38;3208034;23;19930;-77
2022/04/30 03:32:45;;;;;;;;;;;;;;;1.87;92.05;99011.81;3208307;23;19931;-77
2022/04/30 03:34:01;;;;;;;;;;;;;;;1.93;91.71;99016.22;3208458;23;19930;-77
2022/04/30 03:35:17;;;;;;;;;;;;;;;1.86;91.87;99019.56;3207939;23;19931;-77
2022/04/30 03:36:33;;;;;;;;;;;;;;;1.81;91.75;99019.47;3208364;23;19975;-78
2022/04/30 03:37:48;;;;;;;;;;;;;;;1.73;92.41;99023.63;3213195;23;20030;-80
2022/04/30 03:39:04;;;;;;;;;;;;;;;1.75;92.94;99020.25;3208339;23;19923;-77
2022/04/30 03:40:19;;;;;;;;;;;;;;;1.78;92.82;99020.28;3208315;23;19924;-77
2022/04/30 03:41:35;;;;;;;;;;;;;;;1.82;93.08;99019.53;3208586;23;19924;-77
2022/04/30 03:42:50;;;;;;;;;;;;;;;1.86;92.67;99012.66;3208030;23;20370;-77
2022/04/30 03:44:07;;;;;;;;;;;;;;;1.84;91.69;99014.34;3208327;23;19999;-77
2022/04/30 03:45:23;;;;;;;;;;;;;;;1.82;91.86;99014.34;3208293;23;20363;-76
2022/04/30 03:46:38;;;;;;;;;;;;;;;1.80;91.86;99018.59;3208165;23;19970;-77
2022/04/30 03:47:54;;;;;;;;;;;;;;;1.80;92.26;99018.59;3208102;23;19924;-77
2022/04/30 03:49:10;;;;;;;;;;;;;;;1.83;92.38;99022.94;3208062;23;19924;-78
2022/04/30 03:50:25;;;;;;;;;;;;;;;1.83;92.96;99023.84;3207895;23;19924;-77
2022/04/30 03:51:40;;;;;;;;;;;;;;;1.91;93.57;99017.91;3208433;23;19930;-77
2022/04/30 03:52:56;;;;;;;;;;;;;;;1.94;93.64;99017.94;3207930;23;19923;-77
2022/04/30 03:54:11;;;;;;;;;;;;;;;1.97;93.15;99018.03;3208360;23;19964;-77
2022/04/30 03:55:27;;;;;;;;;;;;;;;1.95;92.45;99019.69;3208111;23;19926;-77
2022/04/30 03:56:42;;;;;;;;;;;;;;;1.93;92.79;99021.38;3208653;23;20251;-77
2022/04/30 03:57:58;;;;;;;;;;;;;;;1.91;92.35;99017.91;3208608;23;19928;-77
2022/04/30 03:59:17;;;;;;;;;;;;;;;1.93;92.11;99013.63;3208497;23;19924;-77
2022/04/30 04:00:32;;;;;;;;;;;;;;;1.93;91.78;99016.22;3208410;23;20015;-78
2022/04/30 04:01:48;;;;;;;;;;;;;;;1.95;92.24;99019.69;3208216;23;20208;-77
2022/04/30 04:03:03;;;;;;;;;;;;;;;1.94;91.58;99012.78;3206957;23;19962;-78
2022/04/30 04:04:19;;;;;;;;;;;;;;;1.94;91.67;99012.78;3207772;23;20251;-80
2022/04/30 04:05:34;;;;;;;;;;;;;;;1.94;91.49;99016.25;3208370;23;19950;-80
2022/04/30 04:06:49;;;;;;;;;;;;;;;1.94;91.51;99007.63;3208135;23;19924;-80
2022/04/30 04:08:12;;;;;;;;;;;;;;;1.94;91.60;99007.63;3208486;23;19924;-78
2022/04/30 04:09:27;;;;;;;;;;;;;;;1.98;91.66;99014.59;3208236;23;20324;-77
2022/04/30 04:10:43;;;;;;;;;;;;;;;1.98;91.49;99007.69;3208581;23;19991;-78
2022/04/30 04:11:58;;;;;;;;;;;;;;;2.01;91.60;99006.91;3208464;23;19923;-77
2022/04/30 04:17:57;;;;;;;;;;;;;;;2.07;92.05;99006.97;3212728;23;19999;-77
2022/04/30 04:19:13;;;;;;;;;;;;;;;2.07;92.57;99009.56;3208439;23;20251;-77
2022/04/30 04:20:29;;;;;;;;;;;;;;;2.08;93.44;99003.53;3208226;23;19931;-77
2022/04/30 04:21:44;;;;;;;;;;;;;;;2.06;94.28;99014.72;3208002;23;19934;-78
2022/04/30 04:23:00;;;;;;;;;;;;;;;2.03;95.01;99005.19;3207567;23;19951;-78
2022/04/30 04:25:59;;;;;;;;;;;;;;;2.10;95.25;99011.31;3212747;23;20350;-78
2022/04/30 04:27:15;;;;;;;;;;;;;;;2.29;94.63;99004.72;3213109;23;19924;-77
2022/04/30 04:28:30;;;;;;;;;;;;;;;2.30;94.34;99006.47;3207789;23;19931;-78
2022/04/30 04:29:46;;;;;;;;;;;;;;;2.38;94.27;99010.03;3208241;23;19924;-78
2022/04/30 04:31:02;;;;;;;;;;;;;;;2.34;94.29;99010.81;3207935;23;19931;-79
2022/04/30 04:32:17;;;;;;;;;;;;;;;2.29;94.13;99009.91;3208061;23;20318;-79
2022/04/30 04:33:33;;;;;;;;;;;;;;;2.24;94.52;99014.13;3208405;23;20365;-79
2022/04/30 04:34:48;;;;;;;;;;;;;;;2.23;94.69;99008.09;3208269;23;19924;-78
2022/04/30 04:36:04;;;;;;;;;;;;;;;2.27;94.48;99014.19;3208079;23;19931;-78
2022/04/30 04:37:20;;;;;;;;;;;;;;;2.29;94.64;99014.19;3207717;23;20003;-78
2022/04/30 04:38:35;;;;;;;;;;;;;;;2.30;94.46;99010.75;3208459;23;19930;-79
2022/04/30 04:39:51;;;;;;;;;;;;;;;2.31;94.77;99010.78;3207953;23;19928;-78
2022/04/30 04:41:06;;;;;;;;;;;;;;;2.32;95.00;99009.94;3208214;23;20011;-78
2022/04/30 04:42:22;;;;;;;;;;;;;;;2.35;94.92;99015.13;3207520;23;20354;-77
2022/04/30 04:43:37;;;;;;;;;;;;;;;2.37;94.66;99018.59;3208065;23;20029;-77
2022/04/30 04:44:53;;;;;;;;;;;;;;;2.39;95.01;99013.47;3207944;23;20387;-77
2022/04/30 04:46:09;;;;;;;;;;;;;;;2.41;94.72;99011.78;3207862;23;20011;-77
2022/04/30 04:47:24;;;;;;;;;;;;;;;2.46;94.79;99009.25;3207991;23;20347;-81
2022/04/30 04:48:40;;;;;;;;;;;;;;;2.49;95.45;99006.72;3207903;23;19981;-79
2022/04/30 04:49:55;;;;;;;;;;;;;;;2.52;95.25;99004.19;3207768;23;20402;-78
2022/04/30 04:51:11;;;;;;;;;;;;;;;2.55;95.10;99009.41;3207380;23;19923;-78
2022/04/30 04:52:26;;;;;;;;;;;;;;;2.61;95.11;99016.38;3207670;23;20690;-78
2022/04/30 04:53:42;;;;;;;;;;;;;;;2.64;94.89;99014.66;3208059;23;20395;-77
2022/04/30 04:54:58;;;;;;;;;;;;;;;2.68;95.05;99020.75;3207765;23;19955;-78
2022/04/30 04:56:13;;;;;;;;;;;;;;;2.74;95.11;99017.38;3207803;23;19924;-78
2022/04/30 04:57:29;;;;;;;;;;;;;;;2.77;94.92;99013.13;3207555;23;19923;-78
2022/04/30 04:58:44;;;;;;;;;;;;;;;2.82;94.43;99014.03;3207381;23;19924;-78
2022/04/30 04:59:59;;;;;;;;;;;;;;;2.89;94.43;99011.56;3207195;23;19923;-80
2022/04/30 05:01:15;;;;;;;;;;;;;;;2.88;94.40;99013.25;3207239;23;19934;-80
2022/04/30 05:02:31;;;;;;;;;;;;;;;2.89;94.20;99017.56;3207236;23;19920;-78
2022/04/30 05:03:46;;;;;;;;;;;;;;;2.91;93.85;99013.28;3205409;23;20679;-78
2022/04/30 05:05:02;;;;;;;;;;;;;;;2.94;93.88;99010.75;3207114;23;19924;-77
2022/04/30 05:06:18;;;;;;;;;;;;;;;2.94;94.23;99017.63;3207172;23;20247;-79
2022/04/30 05:07:34;;;;;;;;;;;;;;;2.96;94.29;99011.66;3207359;23;20088;-77
2022/04/30 05:08:49;;;;;;;;;;;;;;;2.96;94.31;99009.06;3205299;23;20030;-77
2022/04/30 05:10:05;;;;;;;;;;;;;;;2.99;94.18;99015.97;3207933;23;20418;-80
2022/04/30 05:11:22;;;;;;;;;;;;;;;2.96;94.42;99011.66;3207724;23;19932;-77
2022/04/30 05:12:37;;;;;;;;;;;;;;;2.95;94.29;99015.09;3207610;23;19931;-76
2022/04/30 05:13:52;;;;;;;;;;;;;;;3.01;94.41;99011.69;3208108;23;19920;-77
2022/04/30 05:15:08;;;;;;;;;;;;;;;3.03;94.05;99019.47;3207804;23;19945;-76
2022/04/30 05:16:24;;;;;;;;;;;;;;;3.08;93.48;99015.22;3207496;23;19927;-76
2022/04/30 05:17:39;;;;;;;;;;;;;;;3.13;92.79;99018.72;3207358;23;19926;-77
2022/04/30 05:18:54;;;;;;;;;;;;;;;3.17;93.12;99017.91;3208078;23;19931;-77
2022/04/30 05:20:10;;;;;;;;;;;;;;;3.24;93.64;99011.06;3207887;23;20608;-76
2022/04/30 05:21:26;;;;;;;;;;;;;;;3.24;93.50;99011.97;3207392;23;20334;-77
2022/04/30 05:22:41;;;;;;;;;;;;;;;3.25;93.07;99011.09;3208102;23;19927;-77
2022/04/30 05:23:56;;;;;;;;;;;;;;;3.28;92.97;99009.41;3207800;23;20245;-77
2022/04/30 05:25:13;;;;;;;;;;;;;;;3.31;92.87;99010.31;3207391;23;19923;-77
2022/04/30 05:26:29;;;;;;;;;;;;;;;3.35;93.37;99013.78;3207354;23;19983;-78
2022/04/30 05:27:44;;;;;;;;;;;;;;;3.40;93.63;99006.94;3205415;23;20385;-78
2022/04/30 05:29:00;;;;;;;;;;;;;;;3.48;93.63;99007.00;3206434;23;19926;-77
2022/04/30 05:30:15;;;;;;;;;;;;;;;3.56;93.78;99009.69;3207049;23;19939;-78
2022/04/30 05:31:31;;;;;;;;;;;;;;;3.69;93.02;99006.34;3207193;23;19930;-77
2022/04/30 05:32:46;;;;;;;;;;;;;;;3.65;92.84;99020.13;3206933;23;19924;-77
2022/04/30 05:34:02;;;;;;;;;;;;;;;3.66;92.79;99011.50;3207141;23;19923;-77
2022/04/30 05:35:18;;;;;;;;;;;;;;;3.87;91.37;99009.94;3206419;23;19924;-79
2022/04/30 05:36:34;;;;;;;;;;;;;;;3.90;91.38;99009.97;3206749;23;19923;-84
2022/04/30 05:37:51;;;;;;;;;;;;;;;3.93;90.60;99012.59;3206162;23;20271;-77
2022/04/30 05:39:06;;;;;;;;;;;;;;;3.99;90.34;99007.47;3206897;23;19931;-77
2022/04/30 05:40:22;;;;;;;;;;;;;;;4.04;89.79;99010.94;3207143;23;19946;-78
2022/04/30 05:41:38;;;;;;;;;;;;;;;4.15;89.32;99016.22;3207083;23;19956;-80
2022/04/30 05:42:53;;;;;;;;;;;;;;;4.18;90.55;99015.34;3207306;23;19920;-86
2022/04/30 05:44:08;;;;;;;;;;;;;;;4.21;89.86;99015.41;3207280;23;19923;-85
2022/04/30 05:45:24;;;;;;;;;;;;;;;4.23;89.36;99011.94;3207097;23;20431;-85
2022/04/30 05:46:40;;;;;;;;;;;;;;;4.29;88.95;99015.44;3207095;23;20240;-82
2022/04/30 05:47:56;;;;;;;;;;;;;;;4.36;88.47;99017.22;3207396;23;19926;-82
2022/04/30 05:49:11;;;;;;;;;;;;;;;4.45;87.58;99019.00;3207220;23;19959;-82
2022/04/30 05:50:26;;;;;;;;;;;;;;;4.43;88.25;99018.13;3207650;23;19986;-81
2022/04/30 05:51:42;;;;;;;;;;;;;;;4.49;89.22;99020.78;3206713;23;19951;-84
2022/04/30 05:52:57;;;;;;;;;;;;;;;4.56;88.91;99019.06;3207098;23;19974;-82
2022/04/30 05:54:13;;;;;;;;;;;;;;;4.58;89.39;99010.44;3207548;23;20280;-82
2022/04/30 05:55:28;;;;;;;;;;;;;;;4.59;90.34;99014.75;3207143;23;19923;-85
2022/04/30 05:56:44;;;;;;;;;;;;;;;4.70;88.23;99024.31;3206909;23;19924;-82
2022/04/30 05:57:59;;;;;;;;;;;;;;;4.77;88.21;99016.56;3207278;23;19981;-81
2022/04/30 05:59:15;;;;;;;;;;;;;;;4.85;88.93;99020.94;3207166;23;19928;-82
2022/04/30 06:00:30;;;;;;;;;;;;;;;4.85;87.88;99019.22;3207464;23;19931;-88
2022/04/30 06:01:46;;;;;;;;;;;;;;;4.88;87.68;99015.78;3206929;23;19923;-81
2022/04/30 06:03:01;;;;;;;;;;;;;;;4.99;86.15;99015.81;3207112;23;19955;-83
2022/04/30 06:04:16;;;;;;;;;;;;;;;5.04;87.06;99014.13;3206937;23;19928;-83
2022/04/30 06:05:32;;;;;;;;;;;;;;;5.14;86.87;99013.25;3206744;23;19924;-82
2022/04/30 06:06:47;;;;;;;;;;;;;;;5.18;87.25;99009.84;3206892;23;20031;-85
2022/04/30 06:08:04;;;;;;;;;;;;;;;5.20;87.26;99010.69;3207247;23;19923;-84
2022/04/30 06:09:20;;;;;;;;;;;;;;;5.31;86.30;99009.88;3207700;23;20390;-89
2022/04/30 06:10:35;;;;;;;;;;;;;;;5.41;86.08;99016.78;3207688;23;19962;-84
2022/04/30 06:11:51;;;;;;;;;;;;;;;5.47;85.07;99008.16;3207098;23;19924;-84
2022/04/30 06:13:06;;;;;;;;;;;;;;;5.48;85.41;99004.69;3207167;23;19924;-85
2022/04/30 06:14:22;;;;;;;;;;;;;;;5.57;85.81;99007.31;3207181;23;19931;-84
2022/04/30 06:15:37;;;;;;;;;;;;;;;5.63;83.99;99009.91;3206588;23;20002;-84
2022/04/30 06:16:55;;;;;;;;;;;;;;;5.64;85.39;99009.03;3207175;23;19930;-88
2022/04/30 06:18:10;;;;;;;;;;;;;;;5.68;83.99;98999.53;3207130;23;19924;-86
2022/04/30 06:19:26;;;;;;;;;;;;;;;5.74;83.82;99009.06;3207474;23;20347;-82
2022/04/30 06:20:41;;;;;;;;;;;;;;;5.82;83.78;99007.34;3206713;23;20419;-82
2022/04/30 06:21:57;;;;;;;;;;;;;;;5.89;83.68;98997.81;3206558;23;20016;-84
2022/04/30 06:23:16;;;;;;;;;;;;;;;5.92;83.09;98993.47;3206044;23;19928;-85
2022/04/30 06:24:31;;;;;;;;;;;;;;;5.99;82.68;99002.13;3206711;23;19951;-87
2022/04/30 06:25:47;;;;;;;;;;;;;;;6.14;81.28;99008.22;3207325;23;19920;-84
2022/04/30 06:27:03;;;;;;;;;;;;;;;6.10;82.59;98999.56;3207362;23;19986;-85
2022/04/30 06:28:19;;;;;;;;;;;;;;;6.15;81.82;98997.81;3207331;23;20022;-84
2022/04/30 06:29:35;;;;;;;;;;;;;;;6.25;81.77;99001.28;3207017;23;19923;-85
2022/04/30 06:30:50;;;;;;;;;;;;;;;6.22;81.89;99004.75;3207292;23;20074;-83
2022/04/30 06:32:06;;;;;;;;;;;;;;;6.34;81.56;99009.06;3207051;23;20207;-82
2022/04/30 06:33:22;;;;;;;;;;;;;;;6.46;81.24;99012.53;3207562;23;19982;-83
2022/04/30 06:34:39;;;;;;;;;;;;;;;6.48;80.97;99006.44;3207373;23;19954;-84
2022/04/30 06:35:54;;;;;;;;;;;;;;;6.61;80.32;99014.19;3207655;23;19924;-85
2022/04/30 06:37:10;;;;;;;;;;;;;;;6.60;79.88;99008.16;3207553;23;20315;-84
2022/04/30 06:38:25;;;;;;;;;;;;;;;6.72;80.70;99009.84;3207684;23;19930;-84
2022/04/30 06:39:41;;;;;;;;;;;;;;;6.72;79.98;99012.44;3207465;23;19946;-85
2022/04/30 06:40:56;;;;;;;;;;;;;;;6.73;79.19;99014.19;3207424;23;19923;-84
2022/04/30 06:42:12;;;;;;;;;;;;;;;6.77;80.76;99005.50;3207518;23;19920;-84
2022/04/30 06:43:27;;;;;;;;;;;;;;;6.85;80.29;99012.41;3207303;23;19943;-83
2022/04/30 06:44:42;;;;;;;;;;;;;;;6.91;81.02;99008.03;3207432;23;19924;-83
2022/04/30 06:45:58;;;;;;;;;;;;;;;6.84;80.38;99008.06;3207646;23;20361;-83
2022/04/30 06:47:14;;;;;;;;;;;;;;;6.89;80.20;99007.19;3209324;23;20002;-83
2022/04/30 06:48:29;;;;;;;;;;;;;;;6.97;80.86;99007.16;3209804;23;20001;-85
2022/04/30 06:49:45;;;;;;;;;;;;;;;7.08;82.27;99009.69;3210105;23;19927;-84
2022/04/30 06:51:00;;;;;;;;;;;;;;;7.19;81.13;99005.31;3213789;23;19928;-84
2022/04/30 06:52:16;;;;;;;;;;;;;;;7.24;81.09;99004.41;3216094;23;19935;-86
2022/04/30 06:57:09;;;;;;;;;;;;;;;7.52;79.69;99012.06;3175296;23;19924;-82
2022/04/30 06:58:25;;;;;;;;;;;;;;;7.61;78.98;99006.81;3175252;23;19945;-82
2022/04/30 06:59:41;;;;;;;;;;;;;;;7.66;78.58;99002.41;3175052;23;20439;-85
2022/04/30 07:02:21;;;;;;;;;;;;;;;7.83;78.07;99007.50;3182281;23;19925;-89
2022/04/30 07:03:37;;;;;;;;;;;;;;;7.88;77.01;99010.94;3209319;23;19927;-88
2022/04/30 07:04:54;;;;;;;;;;;;;;;7.97;77.03;99016.97;3208366;23;19920;-89
2022/04/30 07:06:11;;;;;;;;;;;;;;;8.03;77.25;99015.19;3208423;23;20474;-92
2022/04/30 07:07:26;;;;;;;;;;;;;;;8.09;76.67;99008.16;3208065;23;19928;-87
2022/04/30 07:08:43;;;;;;;;;;;;;;;8.12;77.02;99016.00;3210305;23;20240;-90